sensor_id;sensor_type;location;lat;lon;timestamp;pressure;altitude;pressure_sealevel;temperature;humidity
4085;BME280;2057;50.858;6.572;2022-10-15T00:00:47;99551.69;;;13.76;100.00
4085;BME280;2057;50.858;6.572;2022-10-15T00:03:13;99552.44;;;13.72;100.00
4085;BME280;2057;50.858;6.572;2022-10-15T00:05:39;99556.59;;;13.67;100.00
4085;BME280;2057;50.858;6.572;2022-10-15T00:08:06;99554.16;;;13.71;100.00
4085;BME280;2057;50.858;6.572;2022-10-15T00:10:32;99558.94;;;13.56;100.00
4085;BME280;2057;50.858;6.572;2022-10-15T00:12:58;99554.38;;;13.84;100.00
4085;BME280;2057;50.858;6.572;2022-10-15T00:15:23;99545.00;;;13.81;100.00
4085;BME280;2057;50.858;6.572;2022-10-15T00:17:51;99546.75;;;13.84;100.00
4085;BME280;2057;50.858;6.572;2022-10-15T00:20:17;99541.63;;;13.84;100.00
4085;BME280;2057;50.858;6.572;2022-10-15T00:22:42;99540.00;;;13.87;100.00
4085;BME280;2057;50.858;6.572;2022-10-15T00:25:08;99533.13;;;13.83;100.00
4085;BME280;2057;50.858;6.572;2022-10-15T00:27:34;99532.28;;;13.83;100.00
4085;BME280;2057;50.858;6.572;2022-10-15T00:30:00;99539.88;;;13.81;100.00
4085;BME280;2057;50.858;6.572;2022-10-15T00:32:28;99532.03;;;13.72;100.00
4085;BME280;2057;50.858;6.572;2022-10-15T00:34:54;99524.41;;;13.72;100.00
4085;BME280;2057;50.858;6.572;2022-10-15T00:37:20;99529.31;;;13.62;100.00
4085;BME280;2057;50.858;6.572;2022-10-15T00:39:45;99520.09;;;13.69;100.00
4085;BME280;2057;50.858;6.572;2022-10-15T00:42:11;99522.75;;;13.74;100.00
4085;BME280;2057;50.858;6.572;2022-10-15T00:49:52;99528.38;;;13.59;100.00
4085;BME280;2057;50.858;6.572;2022-10-15T00:52:29;99526.03;;;13.68;100.00
4085;BME280;2057;50.858;6.572;2022-10-15T00:55:00;99538.72;;;13.65;100.00
4085;BME280;2057;50.858;6.572;2022-10-15T00:57:29;99536.94;;;13.61;100.00
4085;BME280;2057;50.858;6.572;2022-10-15T00:59:57;99541.97;;;13.58;100.00
4085;BME280;2057;50.858;6.572;2022-10-15T01:02:24;99544.69;;;13.65;100.00
4085;BME280;2057;50.858;6.572;2022-10-15T01:04:50;99542.72;;;13.52;100.00
4085;BME280;2057;50.858;6.572;2022-10-15T01:07:16;99537.53;;;13.49;100.00
4085;BME280;2057;50.858;6.572;2022-10-15T01:09:41;99536.66;;;13.48;100.00
4085;BME280;2057;50.858;6.572;2022-10-15T01:12:14;99529.00;;;13.48;100.00
4085;BME280;2057;50.858;6.572;2022-10-15T01:15:00;99523.03;;;13.46;100.00
4085;BME280;2057;50.858;6.572;2022-10-15T01:17:35;99530.69;;;13.46;100.00
4085;BME280;2057;50.858;6.572;2022-10-15T01:31:20;99531.72;;;13.55;100.00
4085;BME280;2057;50.858;6.572;2022-10-15T01:34:00;99535.06;;;13.52;100.00
4085;BME280;2057;50.858;6.572;2022-10-15T01:36:38;99530.78;;;13.51;100.00
4085;BME280;2057;50.858;6.572;2022-10-15T01:39:26;99544.31;;;13.48;100.00
4085;BME280;2057;50.858;6.572;2022-10-15T01:42:03;99534.41;;;13.62;100.00
4085;BME280;2057;50.858;6.572;2022-10-15T01:44:35;99542.16;;;13.67;100.00
4085;BME280;2057;50.858;6.572;2022-10-15T01:47:06;99532.09;;;13.73;100.00
4085;BME280;2057;50.858;6.572;2022-10-15T01:49:38;99526.94;;;13.70;100.00
4085;BME280;2057;50.858;6.572;2022-10-15T01:52:09;99537.25;;;13.76;100.00
4085;BME280;2057;50.858;6.572;2022-10-15T01:54:38;99528.00;;;13.82;100.00
4085;BME280;2057;50.858;6.572;2022-10-15T01:57:04;99530.41;;;13.75;100.00
4085;BME280;2057;50.858;6.572;2022-10-15T01:59:31;99526.13;;;13.73;100.00
4085;BME280;2057;50.858;6.572;2022-10-15T02:01:57;99519.53;;;13.83;100.00
4085;BME280;2057;50.858;6.572;2022-10-15T02:04:25;99515.34;;;13.86;100.00
4085;BME280;2057;50.858;6.572;2022-10-15T02:07:08;99518.84;;;13.93;100.00
4085;BME280;2057;50.858;6.572;2022-10-15T02:20:29;99536.63;;;13.88;100.00
4085;BME280;2057;50.858;6.572;2022-10-15T02:23:07;99524.69;;;13.87;100.00
4085;BME280;2057;50.858;6.572;2022-10-15T02:25:36;99527.47;;;13.98;100.00
4085;BME280;2057;50.858;6.572;2022-10-15T02:28:05;99529.22;;;13.99;100.00
4085;BME280;2057;50.858;6.572;2022-10-15T02:30:31;99517.31;;;14.01;100.00
4085;BME280;2057;50.858;6.572;2022-10-15T02:32:58;99515.72;;;14.06;100.00
4085;BME280;2057;50.858;6.572;2022-10-15T02:35:25;99509.63;;;13.98;100.00
4085;BME280;2057;50.858;6.572;2022-10-15T02:37:53;99519.78;;;13.96;100.00
4085;BME280;2057;50.858;6.572;2022-10-15T02:40:22;99525.81;;;14.00;100.00
4085;BME280;2057;50.858;6.572;2022-10-15T02:42:51;99523.19;;;13.97;100.00
4085;BME280;2057;50.858;6.572;2022-10-15T02:45:16;99522.31;;;13.96;100.00
4085;BME280;2057;50.858;6.572;2022-10-15T02:47:42;99520.59;;;13.94;100.00
4085;BME280;2057;50.858;6.572;2022-10-15T02:50:07;99523.28;;;14.00;100.00
4085;BME280;2057;50.858;6.572;2022-10-15T02:52:33;99524.69;;;13.86;100.00
4085;BME280;2057;50.858;6.572;2022-10-15T02:55:00;99516.28;;;13.91;100.00
4085;BME280;2057;50.858;6.572;2022-10-15T02:57:25;99523.09;;;13.91;100.00
4085;BME280;2057;50.858;6.572;2022-10-15T02:59:51;99519.84;;;14.00;100.00
4085;BME280;2057;50.858;6.572;2022-10-15T03:02:16;99525.66;;;13.91;100.00
4085;BME280;2057;50.858;6.572;2022-10-15T03:04:41;99509.09;;;14.16;100.00
4085;BME280;2057;50.858;6.572;2022-10-15T03:07:07;99505.44;;;14.02;100.00
4085;BME280;2057;50.858;6.572;2022-10-15T03:09:32;99499.50;;;14.03;100.00
4085;BME280;2057;50.858;6.572;2022-10-15T03:11:57;99510.72;;;14.12;100.00
4085;BME280;2057;50.858;6.572;2022-10-15T03:14:23;99507.09;;;14.01;100.00
4085;BME280;2057;50.858;6.572;2022-10-15T03:16:48;99510.53;;;14.02;100.00
4085;BME280;2057;50.858;6.572;2022-10-15T03:19:13;99513.91;;;13.99;100.00
4085;BME280;2057;50.858;6.572;2022-10-15T03:21:39;99504.53;;;14.00;100.00
4085;BME280;2057;50.858;6.572;2022-10-15T03:24:04;99511.28;;;13.98;100.00
4085;BME280;2057;50.858;6.572;2022-10-15T03:26:30;99512.97;;;13.95;100.00
4085;BME280;2057;50.858;6.572;2022-10-15T03:28:55;99502.69;;;13.92;100.00
4085;BME280;2057;50.858;6.572;2022-10-15T03:31:21;99508.63;;;13.90;100.00
4085;BME280;2057;50.858;6.572;2022-10-15T03:33:46;99507.06;;;13.98;100.00
4085;BME280;2057;50.858;6.572;2022-10-15T03:36:11;99498.50;;;13.96;100.00
4085;BME280;2057;50.858;6.572;2022-10-15T03:38:37;99508.72;;;13.96;100.00
4085;BME280;2057;50.858;6.572;2022-10-15T03:41:02;99505.41;;;14.00;100.00
4085;BME280;2057;50.858;6.572;2022-10-15T03:43:27;99514.47;;;13.86;100.00
4085;BME280;2057;50.858;6.572;2022-10-15T03:45:53;99510.19;;;13.85;100.00
4085;BME280;2057;50.858;6.572;2022-10-15T03:48:18;99502.59;;;13.86;100.00
4085;BME280;2057;50.858;6.572;2022-10-15T03:50:46;99506.69;;;13.78;100.00
4085;BME280;2057;50.858;6.572;2022-10-15T03:53:12;99511.69;;;13.73;100.00
4085;BME280;2057;50.858;6.572;2022-10-15T03:55:37;99515.91;;;13.73;100.00
4085;BME280;2057;50.858;6.572;2022-10-15T03:58:02;99520.03;;;13.66;100.00
4085;BME280;2057;50.858;6.572;2022-10-15T04:00:28;99517.44;;;13.64;100.00
4085;BME280;2057;50.858;6.572;2022-10-15T04:02:53;99518.38;;;13.68;100.00
4085;BME280;2057;50.858;6.572;2022-10-15T04:05:19;99515.00;;;13.69;100.00
4085;BME280;2057;50.858;6.572;2022-10-15T04:07:44;99510.63;;;13.63;100.00
4085;BME280;2057;50.858;6.572;2022-10-15T04:10:10;99507.44;;;13.74;100.00
4085;BME280;2057;50.858;6.572;2022-10-15T04:12:35;99506.44;;;13.67;100.00
4085;BME280;2057;50.858;6.572;2022-10-15T04:15:00;99501.59;;;13.79;100.00
4085;BME280;2057;50.858;6.572;2022-10-15T04:17:26;99491.22;;;13.70;100.00
4085;BME280;2057;50.858;6.572;2022-10-15T04:19:51;99484.66;;;13.82;100.00
4085;BME280;2057;50.858;6.572;2022-10-15T04:22:17;99484.66;;;13.82;100.00
4085;BME280;2057;50.858;6.572;2022-10-15T04:24:42;99488.94;;;13.84;100.00
4085;BME280;2057;50.858;6.572;2022-10-15T04:27:08;99479.34;;;13.72;100.00
4085;BME280;2057;50.858;6.572;2022-10-15T04:29:33;99491.28;;;13.73;100.00
4085;BME280;2057;50.858;6.572;2022-10-15T04:31:58;99487.88;;;13.74;100.00
4085;BME280;2057;50.858;6.572;2022-10-15T04:34:24;99486.28;;;13.78;100.00
4085;BME280;2057;50.858;6.572;2022-10-15T04:36:49;99492.13;;;13.72;100.00
4085;BME280;2057;50.858;6.572;2022-10-15T04:39:15;99506.59;;;13.73;100.00
4085;BME280;2057;50.858;6.572;2022-10-15T04:41:42;99511.44;;;13.61;100.00
4085;BME280;2057;50.858;6.572;2022-10-15T04:44:08;99513.97;;;13.61;100.00
4085;BME280;2057;50.858;6.572;2022-10-15T04:46:33;99506.41;;;13.65;100.00
4085;BME280;2057;50.858;6.572;2022-10-15T04:48:58;99509.81;;;13.64;100.00
4085;BME280;2057;50.858;6.572;2022-10-15T04:51:25;99516.66;;;13.67;100.00
4085;BME280;2057;50.858;6.572;2022-10-15T04:53:51;99520.03;;;13.66;100.00
4085;BME280;2057;50.858;6.572;2022-10-15T04:56:20;99508.16;;;13.68;100.00
4085;BME280;2057;50.858;6.572;2022-10-15T04:58:47;99515.81;;;13.68;100.00
4085;BME280;2057;50.858;6.572;2022-10-15T05:01:16;99514.91;;;13.64;100.00
4085;BME280;2057;50.858;6.572;2022-10-15T05:03:43;99507.25;;;13.64;100.00
4085;BME280;2057;50.858;6.572;2022-10-15T05:06:15;99509.88;;;13.68;100.00
4085;BME280;2057;50.858;6.572;2022-10-15T05:08:41;99513.75;;;13.50;100.00
4085;BME280;2057;50.858;6.572;2022-10-15T05:11:19;99505.34;;;13.54;100.00
4085;BME280;2057;50.858;6.572;2022-10-15T05:13:44;99497.47;;;13.43;100.00
4085;BME280;2057;50.858;6.572;2022-10-15T05:16:17;99498.13;;;13.36;100.00
4085;BME280;2057;50.858;6.572;2022-10-15T05:18:44;99492.94;;;13.31;100.00
4085;BME280;2057;50.858;6.572;2022-10-15T05:21:11;99493.75;;;13.29;100.00
4085;BME280;2057;50.858;6.572;2022-10-15T05:23:39;99503.78;;;13.23;100.00
4085;BME280;2057;50.858;6.572;2022-10-15T05:26:11;99503.78;;;13.23;100.00
4085;BME280;2057;50.858;6.572;2022-10-15T05:28:37;99505.13;;;13.07;100.00
4085;BME280;2057;50.858;6.572;2022-10-15T05:31:11;99498.19;;;12.99;100.00
4085;BME280;2057;50.858;6.572;2022-10-15T05:33:37;99505.56;;;12.89;100.00
4085;BME280;2057;50.858;6.572;2022-10-15T05:38:34;99507.88;;;12.79;100.00
4085;BME280;2057;50.858;6.572;2022-10-15T05:40:59;99506.13;;;12.77;100.00
4085;BME280;2057;50.858;6.572;2022-10-15T05:43:27;99506.03;;;12.72;100.00
4085;BME280;2057;50.858;6.572;2022-10-15T05:45:53;99505.22;;;12.75;100.00
4085;BME280;2057;50.858;6.572;2022-10-15T05:48:19;99507.59;;;12.67;100.00
4085;BME280;2057;50.858;6.572;2022-10-15T05:50:44;99495.31;;;12.85;100.00
4085;BME280;2057;50.858;6.572;2022-10-15T05:53:12;99504.44;;;12.42;100.00
4085;BME280;2057;50.858;6.572;2022-10-15T05:55:37;99501.44;;;12.57;100.00
4085;BME280;2057;50.858;6.572;2022-10-15T05:58:03;99506.59;;;12.62;100.00
4085;BME280;2057;50.858;6.572;2022-10-15T06:00:31;99512.47;;;12.58;100.00
4085;BME280;2057;50.858;6.572;2022-10-15T06:02:57;99510.66;;;12.53;100.00
4085;BME280;2057;50.858;6.572;2022-10-15T06:05:22;99514.56;;;12.40;100.00
4085;BME280;2057;50.858;6.572;2022-10-15T06:07:47;99514.09;;;12.54;100.00
4085;BME280;2057;50.858;6.572;2022-10-15T06:10:13;99513.25;;;12.55;100.00
4085;BME280;2057;50.858;6.572;2022-10-15T06:12:38;99520.38;;;12.68;100.00
4085;BME280;2057;50.858;6.572;2022-10-15T06:15:04;99512.66;;;12.65;100.00
4085;BME280;2057;50.858;6.572;2022-10-15T06:17:30;99511.78;;;12.65;100.00
4085;BME280;2057;50.858;6.572;2022-10-15T06:19:56;99521.00;;;12.60;100.00
4085;BME280;2057;50.858;6.572;2022-10-15T06:22:21;99515.00;;;12.58;100.00
4085;BME280;2057;50.858;6.572;2022-10-15T06:24:46;99518.69;;;12.69;100.00
4085;BME280;2057;50.858;6.572;2022-10-15T06:27:12;99511.81;;;12.66;100.00
4085;BME280;2057;50.858;6.572;2022-10-15T06:29:38;99515.97;;;12.63;100.00
4085;BME280;2057;50.858;6.572;2022-10-15T06:32:03;99510.75;;;12.57;100.00
4085;BME280;2057;50.858;6.572;2022-10-15T06:34:29;99521.88;;;12.62;100.00
4085;BME280;2057;50.858;6.572;2022-10-15T06:36:54;99525.44;;;12.67;100.00
4085;BME280;2057;50.858;6.572;2022-10-15T06:39:20;99529.63;;;12.65;100.00
4085;BME280;2057;50.858;6.572;2022-10-15T06:41:45;99526.34;;;12.69;100.00
4085;BME280;2057;50.858;6.572;2022-10-15T06:44:10;99526.41;;;12.72;100.00
4085;BME280;2057;50.858;6.572;2022-10-15T06:46:36;99526.34;;;12.69;100.00
4085;BME280;2057;50.858;6.572;2022-10-15T06:49:01;99520.47;;;12.73;100.00
4085;BME280;2057;50.858;6.572;2022-10-15T06:51:29;99518.88;;;12.77;100.00
4085;BME280;2057;50.858;6.572;2022-10-15T06:53:54;99516.44;;;12.81;100.00
4085;BME280;2057;50.858;6.572;2022-10-15T06:56:20;99511.44;;;12.86;100.00
4085;BME280;2057;50.858;6.572;2022-10-15T06:58:45;99514.19;;;12.94;100.00
4085;BME280;2057;50.858;6.572;2022-10-15T07:01:10;99517.63;;;12.96;100.00
4085;BME280;2057;50.858;6.572;2022-10-15T07:03:36;99523.56;;;12.95;100.00
4085;BME280;2057;50.858;6.572;2022-10-15T07:06:05;99530.50;;;13.02;100.00
4085;BME280;2057;50.858;6.572;2022-10-15T07:08:31;99534.78;;;13.03;100.00
4085;BME280;2057;50.858;6.572;2022-10-15T07:10:56;99531.56;;;13.12;100.00
4085;BME280;2057;50.858;6.572;2022-10-15T07:13:21;99536.63;;;13.09;100.00
4085;BME280;2057;50.858;6.572;2022-10-15T07:15:47;99520.78;;;13.24;100.00
4085;BME280;2057;50.858;6.572;2022-10-15T07:18:18;99525.75;;;13.16;100.00
4085;BME280;2057;50.858;6.572;2022-10-15T07:20:43;99529.34;;;13.26;100.00
4085;BME280;2057;50.858;6.572;2022-10-15T07:23:09;99529.47;;;13.32;100.00
4085;BME280;2057;50.858;6.572;2022-10-15T07:25:35;99518.78;;;13.47;100.00
4085;BME280;2057;50.858;6.572;2022-10-15T07:28:00;99519.28;;;13.32;100.00
4085;BME280;2057;50.858;6.572;2022-10-15T07:30:26;99519.28;;;13.32;100.00
4085;BME280;2057;50.858;6.572;2022-10-15T07:32:57;99514.47;;;13.43;100.00
4085;BME280;2057;50.858;6.572;2022-10-15T07:35:24;99516.81;;;13.37;100.00
4085;BME280;2057;50.858;6.572;2022-10-15T07:37:49;99522.03;;;13.40;100.00
4085;BME280;2057;50.858;6.572;2022-10-15T07:40:16;99516.22;;;13.45;100.00
4085;BME280;2057;50.858;6.572;2022-10-15T07:42:41;99514.59;;;13.49;100.00
4085;BME280;2057;50.858;6.572;2022-10-15T07:45:07;99510.59;;;13.60;100.00
4085;BME280;2057;50.858;6.572;2022-10-15T07:47:33;99507.09;;;13.57;100.00
4085;BME280;2057;50.858;6.572;2022-10-15T07:50:00;99498.41;;;13.48;100.00
4085;BME280;2057;50.858;6.572;2022-10-15T07:52:26;99509.69;;;13.58;100.00
4085;BME280;2057;50.858;6.572;2022-10-15T07:54:51;99494.50;;;13.64;100.00
4085;BME280;2057;50.858;6.572;2022-10-15T07:57:18;99493.66;;;13.64;100.00
4085;BME280;2057;50.858;6.572;2022-10-15T07:59:43;99492.13;;;13.74;100.00
4085;BME280;2057;50.858;6.572;2022-10-15T08:02:15;99493.16;;;13.84;100.00
4085;BME280;2057;50.858;6.572;2022-10-15T08:04:41;99496.91;;;14.01;100.00
4085;BME280;2057;50.858;6.572;2022-10-15T08:07:06;99495.97;;;13.98;100.00
4085;BME280;2057;50.858;6.572;2022-10-15T08:09:31;99491.03;;;14.05;100.00
4085;BME280;2057;50.858;6.572;2022-10-15T08:11:57;99486.03;;;14.11;100.00
4085;BME280;2057;50.858;6.572;2022-10-15T08:14:22;99488.56;;;14.10;100.00
4085;BME280;2057;50.858;6.572;2022-10-15T08:16:47;99487.94;;;14.22;100.00
4085;BME280;2057;50.858;6.572;2022-10-15T08:19:13;99495.69;;;14.28;100.00
4085;BME280;2057;50.858;6.572;2022-10-15T08:21:41;99484.63;;;14.29;100.00
4085;BME280;2057;50.858;6.572;2022-10-15T08:24:07;99481.34;;;14.35;100.00
4085;BME280;2057;50.858;6.572;2022-10-15T08:26:33;99479.03;;;14.49;100.00
4085;BME280;2057;50.858;6.572;2022-10-15T08:28:59;99473.13;;;14.53;100.00
4085;BME280;2057;50.858;6.572;2022-10-15T08:31:24;99469.06;;;14.66;100.00
4085;BME280;2057;50.858;6.572;2022-10-15T08:33:50;99467.28;;;14.60;100.00
4085;BME280;2057;50.858;6.572;2022-10-15T08:36:15;99459.84;;;14.74;100.00
4085;BME280;2057;50.858;6.572;2022-10-15T08:38:40;99461.50;;;14.69;100.00
4085;BME280;2057;50.858;6.572;2022-10-15T08:41:25;99460.78;;;14.79;100.00
4085;BME280;2057;50.858;6.572;2022-10-15T08:43:53;99463.28;;;14.76;100.00
4085;BME280;2057;50.858;6.572;2022-10-15T08:46:25;99461.78;;;14.87;100.00
4085;BME280;2057;50.858;6.572;2022-10-15T08:48:54;99452.44;;;14.91;100.00
4085;BME280;2057;50.858;6.572;2022-10-15T08:51:36;99455.97;;;14.98;100.00
4085;BME280;2057;50.858;6.572;2022-10-15T08:54:05;99454.25;;;14.97;100.00
4085;BME280;2057;50.858;6.572;2022-10-15T08:56:36;99450.94;;;15.05;100.00
4085;BME280;2057;50.858;6.572;2022-10-15T09:01:52;99457.00;;;15.11;100.00
4085;BME280;2057;50.858;6.572;2022-10-15T09:06:54;99468.25;;;15.25;100.00
4085;BME280;2057;50.858;6.572;2022-10-15T09:09:32;99471.69;;;15.27;100.00
4085;BME280;2057;50.858;6.572;2022-10-15T09:12:52;99463.31;;;15.41;100.00
4085;BME280;2057;50.858;6.572;2022-10-15T09:15:22;99471.13;;;15.50;100.00
4085;BME280;2057;50.858;6.572;2022-10-15T09:17:50;99468.69;;;15.61;100.00
4085;BME280;2057;50.858;6.572;2022-10-15T09:20:23;99464.44;;;15.61;100.00
4085;BME280;2057;50.858;6.572;2022-10-15T09:22:50;99463.56;;;15.59;100.00
4085;BME280;2057;50.858;6.572;2022-10-15T09:25:18;99463.59;;;15.62;100.00
4085;BME280;2057;50.858;6.572;2022-10-15T09:27:46;99461.16;;;15.75;100.00
4085;BME280;2057;50.858;6.572;2022-10-15T09:33:00;99451.81;;;15.77;100.00
4085;BME280;2057;50.858;6.572;2022-10-15T09:35:46;99453.72;;;15.90;100.00
4085;BME280;2057;50.858;6.572;2022-10-15T09:38:33;99453.72;;;15.93;100.00
4085;BME280;2057;50.858;6.572;2022-10-15T09:43:56;99440.91;;;15.92;100.00
4085;BME280;2057;50.858;6.572;2022-10-15T09:46:23;99438.44;;;15.99;100.00
4085;BME280;2057;50.858;6.572;2022-10-15T09:49:12;99436.69;;;15.95;100.00
4085;BME280;2057;50.858;6.572;2022-10-15T09:57:35;99428.44;;;16.24;100.00
4085;BME280;2057;50.858;6.572;2022-10-15T10:00:06;99429.38;;;16.39;100.00
4085;BME280;2057;50.858;6.572;2022-10-15T10:02:32;99420.84;;;16.41;100.00
4085;BME280;2057;50.858;6.572;2022-10-15T10:05:18;99423.44;;;16.43;100.00
4085;BME280;2057;50.858;6.572;2022-10-15T10:07:44;99415.84;;;16.54;100.00
4085;BME280;2057;50.858;6.572;2022-10-15T10:10:26;99409.97;;;16.72;100.00
4085;BME280;2057;50.858;6.572;2022-10-15T10:12:54;99418.78;;;17.11;100.00
4085;BME280;2057;50.858;6.572;2022-10-15T10:17:52;99420.63;;;17.46;100.00
4085;BME280;2057;50.858;6.572;2022-10-15T10:20:19;99419.78;;;17.55;100.00
4085;BME280;2057;50.858;6.572;2022-10-15T10:22:53;99418.13;;;17.72;100.00
4085;BME280;2057;50.858;6.572;2022-10-15T10:27:54;99420.78;;;18.02;100.00
4085;BME280;2057;50.858;6.572;2022-10-15T10:30:20;99419.06;;;18.26;100.00
4085;BME280;2057;50.858;6.572;2022-10-15T10:32:47;99411.38;;;18.37;99.26
4085;BME280;2057;50.858;6.572;2022-10-15T10:35:21;99410.50;;;18.45;99.50
4085;BME280;2057;50.858;6.572;2022-10-15T10:37:47;99419.06;;;18.47;99.47
4085;BME280;2057;50.858;6.572;2022-10-15T10:40:29;99408.75;;;18.64;97.78
4085;BME280;2057;50.858;6.572;2022-10-15T10:46:00;99411.31;;;18.89;97.76
4085;BME280;2057;50.858;6.572;2022-10-15T10:48:27;99419.03;;;18.86;97.20
4085;BME280;2057;50.858;6.572;2022-10-15T10:51:12;99403.44;;;19.37;96.38
4085;BME280;2057;50.858;6.572;2022-10-15T10:53:46;99402.56;;;19.41;92.77
4085;BME280;2057;50.858;6.572;2022-10-15T10:56:12;99409.44;;;19.41;93.81
4085;BME280;2057;50.858;6.572;2022-10-15T10:58:40;99413.63;;;19.59;94.34
4085;BME280;2057;50.858;6.572;2022-10-15T11:01:10;99409.19;;;19.84;93.66
4085;BME280;2057;50.858;6.572;2022-10-15T11:03:39;99412.72;;;19.68;91.58
4085;BME280;2057;50.858;6.572;2022-10-15T11:14:51;99408.47;;;19.56;92.98
4085;BME280;2057;50.858;6.572;2022-10-15T11:31:00;99393.84;;;19.63;94.71
4085;BME280;2057;50.858;6.572;2022-10-15T11:46:44;99405.63;;;20.04;91.02
4085;BME280;2057;50.858;6.572;2022-10-15T11:49:42;99401.22;;;20.20;89.85
4085;BME280;2057;50.858;6.572;2022-10-15T11:57:44;99383.41;;;19.83;91.21
4085;BME280;2057;50.858;6.572;2022-10-15T12:00:31;99386.09;;;19.64;90.52
4085;BME280;2057;50.858;6.572;2022-10-15T12:03:21;99375.78;;;19.69;91.47
4085;BME280;2057;50.858;6.572;2022-10-15T12:05:49;99383.53;;;19.64;92.81
4085;BME280;2057;50.858;6.572;2022-10-15T12:08:16;99379.28;;;19.60;92.14
4085;BME280;2057;50.858;6.572;2022-10-15T12:11:00;99371.53;;;19.62;93.40
4085;BME280;2057;50.858;6.572;2022-10-15T12:13:35;99376.69;;;19.65;93.39
4085;BME280;2057;50.858;6.572;2022-10-15T12:18:38;99373.97;;;19.82;91.79
4085;BME280;2057;50.858;6.572;2022-10-15T12:21:30;99368.84;;;19.80;93.19
4085;BME280;2057;50.858;6.572;2022-10-15T12:23:57;99372.31;;;19.78;92.20
4085;BME280;2057;50.858;6.572;2022-10-15T12:28:49;99378.38;;;19.70;91.89
4085;BME280;2057;50.858;6.572;2022-10-15T12:31:16;99372.28;;;19.81;91.29
4085;BME280;2057;50.858;6.572;2022-10-15T12:33:52;99373.94;;;19.91;92.31
4085;BME280;2057;50.858;6.572;2022-10-15T12:36:30;99367.00;;;19.99;90.78
4085;BME280;2057;50.858;6.572;2022-10-15T12:39:05;99366.84;;;20.24;89.48
4085;BME280;2057;50.858;6.572;2022-10-15T12:41:37;99366.78;;;20.27;90.25
4085;BME280;2057;50.858;6.572;2022-10-15T12:44:27;99365.13;;;20.20;89.72
4085;BME280;2057;50.858;6.572;2022-10-15T12:46:54;99375.59;;;20.01;90.13
4085;BME280;2057;50.858;6.572;2022-10-15T12:51:52;99363.41;;;20.22;88.63
4085;BME280;2057;50.858;6.572;2022-10-15T12:54:41;99363.41;;;20.22;90.13
4085;BME280;2057;50.858;6.572;2022-10-15T13:00:28;99353.19;;;20.10;88.72
4085;BME280;2057;50.858;6.572;2022-10-15T13:02:57;99346.28;;;20.15;88.15
4085;BME280;2057;50.858;6.572;2022-10-15T13:05:33;99352.22;;;20.21;85.71
4085;BME280;2057;50.858;6.572;2022-10-15T13:08:01;99347.75;;;20.42;84.32
4085;BME280;2057;50.858;6.572;2022-10-15T13:10:32;99341.78;;;20.37;85.18
4085;BME280;2057;50.858;6.572;2022-10-15T13:13:01;99338.34;;;20.36;85.82
4085;BME280;2057;50.858;6.572;2022-10-15T13:15:29;99349.47;;;20.42;86.29
4085;BME280;2057;50.858;6.572;2022-10-15T13:17:57;99352.09;;;20.38;85.48
4085;BME280;2057;50.858;6.572;2022-10-15T13:20:33;99359.75;;;20.45;85.78
4085;BME280;2057;50.858;6.572;2022-10-15T13:25:46;99352.91;;;20.42;85.34
4085;BME280;2057;50.858;6.572;2022-10-15T13:28:32;99353.75;;;20.43;85.89
4085;BME280;2057;50.858;6.572;2022-10-15T13:30:59;99350.38;;;20.37;85.18
4085;BME280;2057;50.858;6.572;2022-10-15T13:33:26;99348.69;;;20.33;85.45
4085;BME280;2057;50.858;6.572;2022-10-15T13:35:52;99356.47;;;20.27;85.38
4085;BME280;2057;50.858;6.572;2022-10-15T13:38:21;99346.06;;;20.36;86.41
4085;BME280;2057;50.858;6.572;2022-10-15T13:40:54;99353.03;;;20.25;86.72
4085;BME280;2057;50.858;6.572;2022-10-15T13:43:24;99349.59;;;20.26;88.26
4085;BME280;2057;50.858;6.572;2022-10-15T13:45:54;99346.00;;;20.43;88.44
4085;BME280;2057;50.858;6.572;2022-10-15T13:48:22;99345.97;;;20.49;88.73
4085;BME280;2057;50.858;6.572;2022-10-15T13:50:51;99351.22;;;20.40;88.39
4085;BME280;2057;50.858;6.572;2022-10-15T13:55:50;99351.31;;;20.27;91.51
4085;BME280;2057;50.858;6.572;2022-10-15T13:58:23;99352.25;;;20.17;89.57
4085;BME280;2057;50.858;6.572;2022-10-15T14:01:14;99350.63;;;20.11;88.96
4085;BME280;2057;50.858;6.572;2022-10-15T14:09:18;99347.81;;;20.34;88.20
4085;BME280;2057;50.858;6.572;2022-10-15T14:11:44;99345.31;;;20.28;88.09
4085;BME280;2057;50.858;6.572;2022-10-15T14:14:45;99343.63;;;20.22;88.17
4085;BME280;2057;50.858;6.572;2022-10-15T14:17:22;99351.44;;;20.15;88.49
4085;BME280;2057;50.858;6.572;2022-10-15T14:19:53;99348.88;;;20.12;87.66
4085;BME280;2057;50.858;6.572;2022-10-15T14:22:21;99355.00;;;20.00;87.25
4085;BME280;2057;50.858;6.572;2022-10-15T14:24:52;99358.53;;;19.82;87.08
4085;BME280;2057;50.858;6.572;2022-10-15T14:27:25;99367.13;;;19.79;88.53
4085;BME280;2057;50.858;6.572;2022-10-15T14:29:53;99379.19;;;19.75;88.32
4085;BME280;2057;50.858;6.572;2022-10-15T14:32:26;99368.91;;;19.72;89.76
4085;BME280;2057;50.858;6.572;2022-10-15T14:34:56;99368.00;;;19.78;89.28
4085;BME280;2057;50.858;6.572;2022-10-15T14:42:40;99379.25;;;19.65;89.49
4085;BME280;2057;50.858;6.572;2022-10-15T14:47:37;99414.50;;;19.55;90.42
4085;BME280;2057;50.858;6.572;2022-10-15T14:50:04;99456.72;;;19.12;93.92
4085;BME280;2057;50.858;6.572;2022-10-15T14:52:30;99461.88;;;17.99;100.00
4085;BME280;2057;50.858;6.572;2022-10-15T14:55:28;99460.72;;;17.22;100.00
4085;BME280;2057;50.858;6.572;2022-10-15T14:57:56;99449.59;;;17.17;100.00
4085;BME280;2057;50.858;6.572;2022-10-15T15:00:27;99446.91;;;17.00;100.00
4085;BME280;2057;50.858;6.572;2022-10-15T15:02:57;99446.78;;;16.85;100.00
4085;BME280;2057;50.858;6.572;2022-10-15T15:05:25;99444.19;;;16.80;100.00
4085;BME280;2057;50.858;6.572;2022-10-15T15:07:51;99450.97;;;16.69;100.00
4085;BME280;2057;50.858;6.572;2022-10-15T15:10:17;99454.41;;;16.74;100.00
4085;BME280;2057;50.858;6.572;2022-10-15T15:12:52;99459.47;;;16.66;100.00
4085;BME280;2057;50.858;6.572;2022-10-15T15:15:21;99477.31;;;16.52;100.00
4085;BME280;2057;50.858;6.572;2022-10-15T15:17:47;99479.06;;;16.55;100.00
4085;BME280;2057;50.858;6.572;2022-10-15T15:20:14;99476.41;;;16.49;100.00
4085;BME280;2057;50.858;6.572;2022-10-15T15:22:40;99476.38;;;16.41;100.00
4085;BME280;2057;50.858;6.572;2022-10-15T15:25:14;99476.38;;;16.42;100.00
4085;BME280;2057;50.858;6.572;2022-10-15T15:27:39;99483.31;;;16.51;100.00